Aérodrome :
LOGIN :

S'inscrire | Disclaimer

   EN    FR    IT 

 










Légende :    VFR   VFR Marginal   IFR   IFR Intensif   IFR Très Intensif
Visi : 
Plafond : 
>= 8 km
>= 3000ft
5 à 8 km
1000 à 3000 ft
1500m à 5 km
500 à 1000 ft
800 à 1500m
200 à 500 ft
< 800m
< 200 ft
Symboles :   Orages  Brouillard  Fortes neiges  Fortes précipitations  Vent > 20 kt
SIGMETs :   Divers  Orages  Givrage  Turbulence  Onde Orograph.  Cendres Volcan.






- Altitude de l'aérodrome : 21 ft
- Code IATA : BJV


LTFE - Bodrum

DERNIER METAR :
  • 270850Z 26012KT 9999 SCT035 21/09 Q1015 NOSIG RMK RWY10 26012KT 220V280

METARs EXPIRÉS :
  • 270820Z 26011KT 230V290 9999 SCT035 SCT100 21/09 Q1015 NOSIG
  • 270750Z 26009KT 9999 SCT035 SCT100 20/10 Q1015 NOSIG RMK RWY10 26011KT
  • 270720Z 26010KT 230V290 9999 SCT035 SCT100 20/09 Q1015 NOSIG RMK RWY10 27009KT 240V300
  • 270650Z 26008KT 230V290 9999 SCT035 BKN100 20/11 Q1014 NOSIG RMK RWY10 26011KT
  • 270620Z 26006KT 200V320 9999 SCT035 19/12 Q1014 NOSIG RMK RWY10 26008KT 220V290

TAF COR TAF LTFE
Valide du 27 à 06h jusqu'au 28 à 06h UTC


270440Z 2706/2806 VRB02KT 9999 FEW020CB SCT030
BECMG 2707/2709 26017KT
BECMG 2712/2715 SCT030
BECMG 2715/2718 VRB02KT



MET'MAP, la Météo Aéronautique d'un coup d'oeil ! - Copyright ORBIFLY Décembre 2007 - Disclaimer

ORBIFLY MET'MAP TEAM :

Programmation & Développement : Alexandra Zaïnal
Sur une idée originale de : Baudouin d'Aumeries
Assistance à la programmation : Marc-Olivier Méhu
Soutien technique & logistique : Manuel Goepfert

Contact : metmap@orbifly.com




SOURCES & CREDITS :

   NOAA